createdAt,value
2023-04-21T00:00:08.583Z,97325.22
2023-04-21T00:04:15.563Z,97318.19
2023-04-21T00:08:19.682Z,97316.41
2023-04-21T00:12:25.872Z,97307.59
2023-04-21T00:16:30.059Z,97311.19
2023-04-21T00:20:35.264Z,97299.16
2023-04-21T00:24:39.271Z,97319.34
2023-04-21T00:28:42.332Z,97309.09
2023-04-21T00:32:46.316Z,97306.81
2023-04-21T00:36:51.498Z,97303.75
2023-04-21T00:40:55.196Z,97298.38
2023-04-21T00:44:58.554Z,97297.28
2023-04-21T00:49:05.075Z,97297.78
2023-04-21T00:53:11.167Z,97296.50
2023-04-21T00:57:16.489Z,97294.38
2023-04-21T01:01:19.577Z,97288.53
2023-04-21T01:05:23.067Z,97287.72
2023-04-21T01:09:28.530Z,97291.16
2023-04-21T01:13:32.361Z,97290.63
2023-04-21T01:17:38.847Z,97286.91
2023-04-21T01:21:43.959Z,97291.97
2023-04-21T01:25:47.790Z,97295.41
2023-04-21T01:29:54.403Z,97290.84
2023-04-21T01:33:57.661Z,97292.50
2023-04-21T01:38:02.814Z,97292.97
2023-04-21T01:42:05.936Z,97292.00
2023-04-21T01:46:09.904Z,97296.09
2023-04-21T01:50:13.591Z,97295.75
2023-04-21T01:54:18.477Z,97299.66
2023-04-21T01:58:24.207Z,97295.91
2023-04-21T02:02:28.297Z,97297.06
2023-04-21T02:06:32.073Z,97293.81
2023-04-21T02:10:36.980Z,97299.84
2023-04-21T02:14:41.354Z,97298.19
2023-04-21T02:18:45.299Z,97290.22
2023-04-21T02:22:48.287Z,97298.69
2023-04-21T02:26:54.166Z,97295.59
2023-04-21T02:30:57.813Z,97295.44
2023-04-21T02:35:01.827Z,97299.66
2023-04-21T02:39:05.848Z,97294.78
2023-04-21T02:43:16.717Z,97293.16
2023-04-21T02:47:20.725Z,97283.09
2023-04-21T02:51:24.405Z,97290.22
2023-04-21T02:55:28.896Z,97282.09
2023-04-21T02:59:34.971Z,97286.66
2023-04-21T03:03:38.789Z,97279.84
2023-04-21T03:07:42.425Z,97282.25
2023-04-21T03:11:45.407Z,97285.50
2023-04-21T03:15:50.781Z,97280.94
2023-04-21T03:19:54.071Z,97285.97
2023-04-21T03:23:57.516Z,97288.25
2023-04-21T03:28:00.963Z,97284.00
2023-04-21T03:32:05.992Z,97285.31
2023-04-21T03:36:09.861Z,97281.72
2023-04-21T03:40:13.434Z,97285.56
2023-04-21T03:44:16.464Z,97285.09
2023-04-21T03:48:21.475Z,97288.66
2023-04-21T03:52:25.101Z,97282.97
2023-04-21T03:56:28.862Z,97285.22
2023-04-21T04:00:32.107Z,97280.66
2023-04-21T04:04:37.534Z,97284.50
2023-04-21T04:08:41.238Z,97291.50
2023-04-21T04:12:44.786Z,97289.38
2023-04-21T04:16:48.273Z,97290.22
2023-04-21T04:20:53.175Z,97295.59
2023-04-21T04:24:57.358Z,97294.34
2023-04-21T04:29:03.047Z,97298.25
2023-04-21T04:33:07.175Z,97302.16
2023-04-21T04:37:14.163Z,97302.50
2023-04-21T04:41:19.738Z,97314.69
2023-04-21T04:45:23.734Z,97302.84
2023-04-21T04:49:27.504Z,97315.88
2023-04-21T04:53:32.815Z,97310.81
2023-04-21T04:57:38.592Z,97309.06
2023-04-21T05:01:43.372Z,97314.91
2023-04-21T05:05:47.459Z,97317.22
2023-04-21T05:09:52.291Z,97326.97
2023-04-21T05:13:55.762Z,97310.03
2023-04-21T05:17:59.616Z,97306.00
2023-04-21T05:22:02.705Z,97322.91
2023-04-21T05:26:07.875Z,97322.38
2023-04-21T05:30:12.543Z,97326.78
2023-04-21T05:34:16.062Z,97330.66
2023-04-21T05:38:19.262Z,97329.31
2023-04-21T05:42:24.247Z,97330.41
2023-04-21T05:46:27.298Z,97328.25
2023-04-21T05:50:34.162Z,97329.50
2023-04-21T05:54:37.402Z,97327.97
2023-04-21T05:58:42.801Z,97334.28
2023-04-21T06:02:46.360Z,97330.75
2023-04-21T06:06:50.279Z,97328.84
2023-04-21T06:10:53.461Z,97324.38
2023-04-21T06:14:58.727Z,97324.22
2023-04-21T06:19:01.907Z,97312.03
2023-04-21T06:23:05.361Z,97323.22
2023-04-21T06:27:13.116Z,97321.91
2023-04-21T06:31:19.612Z,97314.50
2023-04-21T06:35:22.905Z,97321.97
2023-04-21T06:39:26.643Z,97321.47
2023-04-21T06:43:29.850Z,97323.75
2023-04-21T06:47:34.974Z,97314.75
2023-04-21T06:51:38.234Z,97310.94
2023-04-21T06:55:41.815Z,97312.63
2023-04-21T06:59:46.284Z,97310.69
2023-04-21T07:03:51.098Z,97303.59
2023-04-21T07:07:57.172Z,97312.44
2023-04-21T07:12:00.244Z,97306.34
2023-04-21T07:16:03.200Z,97305.03
2023-04-21T07:20:09.694Z,97304.84
2023-04-21T07:24:15.218Z,97305.28
2023-04-21T07:28:18.770Z,97297.13
2023-04-21T07:32:23.697Z,97305.88
2023-04-21T07:36:31.041Z,97309.66
2023-04-21T07:40:34.332Z,97308.53
2023-04-21T07:44:39.560Z,97308.41
2023-04-21T07:48:42.595Z,97301.13
2023-04-21T07:52:48.254Z,97309.03
2023-04-21T07:56:53.515Z,97298.38
2023-04-21T08:00:57.372Z,97299.53
2023-04-21T08:05:01.309Z,97301.97
2023-04-21T08:09:06.149Z,97295.47
2023-04-21T08:13:09.272Z,97295.69
2023-04-21T08:17:13.480Z,97297.13
2023-04-21T08:21:16.871Z,97299.97
2023-04-21T08:25:22.008Z,97298.34
2023-04-21T08:29:25.331Z,97300.00
2023-04-21T08:33:29.486Z,97293.44
2023-04-21T08:37:32.538Z,97290.59
2023-04-21T08:41:39.813Z,97281.41
2023-04-21T08:45:43.942Z,97288.69
2023-04-21T08:49:51.382Z,97285.94
2023-04-21T08:53:56.307Z,97285.78
2023-04-21T08:58:01.569Z,97286.97
2023-04-21T09:02:08.970Z,97289.25
2023-04-21T09:06:14.455Z,97284.78
2023-04-21T09:10:24.028Z,97284.16
2023-04-21T09:14:34.616Z,97286.03
2023-04-21T09:18:40.554Z,97275.34
2023-04-21T09:22:43.946Z,97283.88
2023-04-21T09:26:51.923Z,97276.69
2023-04-21T09:30:58.698Z,97275.00
2023-04-21T09:35:02.449Z,97280.16
2023-04-21T09:43:14.032Z,97267.78
2023-04-21T09:47:20.755Z,97268.44
2023-04-21T09:51:42.846Z,97266.91
2023-04-21T09:55:53.442Z,97272.91
2023-04-21T10:00:01.407Z,97267.22
2023-04-21T10:04:07.019Z,97257.03
2023-04-21T10:08:11.787Z,97268.72
2023-04-21T10:12:17.209Z,97261.91
2023-04-21T10:16:21.980Z,97253.44
2023-04-21T10:20:27.117Z,97239.19
2023-04-21T10:24:30.875Z,97243.56
2023-04-21T10:28:45.589Z,97239.41
2023-04-21T10:32:48.872Z,97240.47
2023-04-21T10:37:16.742Z,97232.78
2023-04-21T10:41:30.661Z,97223.28
2023-04-21T10:45:34.190Z,97236.38
2023-04-21T10:49:40.863Z,97224.41
2023-04-21T10:53:47.245Z,97222.28
2023-04-21T10:57:50.760Z,97230.50
2023-04-21T11:01:55.072Z,97221.38
2023-04-21T11:05:58.839Z,97212.50
2023-04-21T11:10:05.657Z,97214.66
2023-04-21T11:14:08.916Z,97213.78
2023-04-21T11:18:12.484Z,97216.19
2023-04-21T11:22:17.884Z,97208.97
2023-04-21T11:26:32.429Z,97213.53
2023-04-21T11:30:36.794Z,97208.53
2023-04-21T11:34:40.672Z,97191.06
2023-04-21T11:38:44.096Z,97204.00
2023-04-21T11:42:49.747Z,97201.44
2023-04-21T11:46:53.024Z,97201.22
2023-04-21T11:50:56.893Z,97191.69
2023-04-21T11:55:02.215Z,97200.25
2023-04-21T11:59:12.694Z,97189.59
2023-04-21T12:03:16.640Z,97191.72
2023-04-21T12:07:24.870Z,97188.78
2023-04-21T12:11:29.328Z,97185.53
2023-04-21T12:15:34.922Z,97177.50
2023-04-21T12:19:39.803Z,97186.28
2023-04-21T12:23:45.135Z,97177.50
2023-04-21T12:27:51.467Z,97176.41
2023-04-21T12:31:56.868Z,97180.94
2023-04-21T12:36:01.324Z,97174.56
2023-04-21T12:40:05.182Z,97170.56
2023-04-21T12:44:08.526Z,97177.50
2023-04-21T12:48:13.841Z,97159.84
2023-04-21T12:52:17.037Z,97156.63
2023-04-21T12:56:20.531Z,97158.78
2023-04-21T13:00:24.996Z,97164.91
2023-04-21T13:04:30.716Z,97152.63
2023-04-21T13:08:34.157Z,97157.72
2023-04-21T13:12:37.437Z,97154.53
2023-04-21T13:16:41.303Z,97141.19
2023-04-21T13:20:46.028Z,97150.53
2023-04-21T13:24:49.002Z,97145.97
2023-04-21T13:28:52.390Z,97142.25
2023-04-21T13:32:55.963Z,97135.28
2023-04-21T13:37:00.980Z,97140.13
2023-04-21T13:41:05.504Z,97126.25
2023-04-21T13:45:09.712Z,97128.13
2023-04-21T13:49:14.895Z,97135.59
2023-04-21T13:53:21.324Z,97124.66
2023-04-21T13:57:26.583Z,97108.13
2023-04-21T14:01:29.680Z,97107.63
2023-04-21T14:05:33.516Z,97112.69
2023-04-21T14:09:38.304Z,97107.09
2023-04-21T14:13:51.946Z,97110.81
2023-04-21T14:18:03.111Z,97098.00
2023-04-21T14:22:06.122Z,97101.72
2023-04-21T14:26:10.914Z,97094.03
2023-04-21T14:30:15.366Z,97101.22
2023-04-21T14:34:18.882Z,97095.91
2023-04-21T14:38:22.252Z,97089.47
2023-04-21T14:42:27.306Z,97087.34
2023-04-21T14:46:30.717Z,97082.81
2023-04-21T14:50:34.441Z,97088.16
2023-04-21T14:54:37.498Z,97076.69
2023-04-21T14:58:43.090Z,97081.50
2023-04-21T15:02:46.396Z,97078.88
2023-04-21T15:06:50.085Z,97074.84
2023-04-21T15:10:53.514Z,97073.81
2023-04-21T15:14:58.680Z,97066.03
2023-04-21T15:19:01.969Z,97074.03
2023-04-21T15:23:06.795Z,97071.91
2023-04-21T15:27:09.887Z,97070.28
2023-04-21T15:31:14.825Z,97069.78
2023-04-21T15:35:18.205Z,97071.88
2023-04-21T15:39:21.756Z,97070.81
2023-04-21T15:43:25.892Z,97064.94
2023-04-21T15:47:31.008Z,97080.38
2023-04-21T15:51:35.782Z,97077.09
2023-04-21T15:55:40.284Z,97080.19
2023-04-21T15:59:43.524Z,97075.31
2023-04-21T16:03:49.422Z,97080.75
2023-04-21T16:07:52.900Z,97075.31
2023-04-21T16:11:57.097Z,97076.78
2023-04-21T16:16:00.131Z,97077.38
2023-04-21T16:20:06.337Z,97067.72
2023-04-21T16:24:11.287Z,97067.25
2023-04-21T16:28:16.646Z,97079.06
2023-04-21T16:32:20.780Z,97073.78
2023-04-21T16:36:25.957Z,97082.09
2023-04-21T16:40:29.297Z,97078.41
2023-04-21T16:44:32.575Z,97072.78
2023-04-21T16:49:08.924Z,97069.75
2023-04-21T17:03:46.370Z,97062.84
2023-04-21T17:08:12.959Z,97064.56
2023-04-21T17:12:40.581Z,97079.16
2023-04-21T17:17:21.278Z,97074.78
2023-04-21T17:22:14.124Z,97065.31
2023-04-21T17:26:40.211Z,97070.97
2023-04-21T17:32:03.514Z,97081.88
2023-04-21T17:36:40.940Z,97095.22
2023-04-21T17:41:00.030Z,97102.50
2023-04-21T17:45:25.613Z,97093.78
2023-04-21T17:54:18.090Z,97110.41
2023-04-21T17:58:20.988Z,97115.56
2023-04-21T18:02:24.775Z,97116.19
2023-04-21T18:06:28.798Z,97109.47
2023-04-21T18:10:33.436Z,97119.38
2023-04-21T18:14:36.714Z,97117.91
2023-04-21T18:18:41.389Z,97120.47
2023-04-21T18:22:44.790Z,97120.97
2023-04-21T18:26:53.080Z,97124.91
2023-04-21T18:30:56.617Z,97124.38
2023-04-21T18:35:00.497Z,97120.19
2023-04-21T18:39:03.432Z,97128.13
2023-04-21T18:43:09.815Z,97136.88
2023-04-21T18:47:14.107Z,97141.94
2023-04-21T18:51:18.921Z,97145.78
2023-04-21T18:55:23.825Z,97142.78
2023-04-21T18:59:28.536Z,97150.06
2023-04-21T19:03:32.227Z,97156.97
2023-04-21T19:07:36.879Z,97151.53
2023-04-21T19:11:40.179Z,97152.94
2023-04-21T19:15:45.903Z,97155.34
2023-04-21T19:19:49.998Z,97152.91
2023-04-21T19:23:55.008Z,97150.03
2023-04-21T19:27:59.135Z,97158.09
2023-04-21T19:32:05.561Z,97156.44
2023-04-21T19:36:09.671Z,97160.22
2023-04-21T19:40:13.654Z,97161.38
2023-04-21T19:44:16.721Z,97159.91
2023-04-21T19:48:21.634Z,97153.00
2023-04-21T19:52:25.199Z,97157.31
2023-04-21T19:56:30.185Z,97164.91
2023-04-21T20:00:33.815Z,97162.00
2023-04-21T20:04:39.772Z,97156.31
2023-04-21T20:08:43.296Z,97162.88
2023-04-21T20:12:46.392Z,97161.41
2023-04-21T20:16:50.731Z,97157.75
2023-04-21T20:20:55.635Z,97163.53
2023-04-21T20:24:59.463Z,97159.69
2023-04-21T20:29:02.465Z,97165.31
2023-04-21T20:33:06.017Z,97162.88
2023-04-21T20:37:12.156Z,97170.91
2023-04-21T20:41:15.943Z,97161.81
2023-04-21T20:45:20.204Z,97164.81
2023-04-21T20:49:23.556Z,97162.13
2023-04-21T20:53:28.070Z,97155.84
2023-04-21T20:57:31.407Z,97167.03
2023-04-21T21:01:39.397Z,97167.78
2023-04-21T21:05:44.195Z,97168.19
2023-04-21T21:09:49.771Z,97170.50
2023-04-21T21:13:53.127Z,97175.09
2023-04-21T21:17:56.461Z,97180.72
2023-04-21T21:22:00.202Z,97177.03
2023-04-21T21:26:04.729Z,97188.03
2023-04-21T21:30:09.993Z,97186.34
2023-04-21T21:34:14.680Z,97190.69
2023-04-21T21:38:17.917Z,97193.59
2023-04-21T21:42:22.935Z,97197.31
2023-04-21T21:46:26.312Z,97194.97
2023-04-21T21:50:29.785Z,97200.47
2023-04-21T21:54:33.098Z,97203.34
2023-04-21T21:58:38.049Z,97202.63
2023-04-21T22:02:42.547Z,97208.28
2023-04-21T22:06:47.091Z,97197.31
2023-04-21T22:10:50.108Z,97204.41
2023-04-21T22:14:55.787Z,97210.34
2023-04-21T22:19:00.166Z,97211.00
2023-04-21T22:23:03.645Z,97213.34
2023-04-21T22:27:07.650Z,97213.69
2023-04-21T22:31:12.995Z,97214.03
2023-04-21T22:35:16.765Z,97206.75
2023-04-21T22:39:20.234Z,97212.66
2023-04-21T22:43:23.777Z,97210.78
2023-04-21T22:47:29.117Z,97214.44
2023-04-21T22:51:33.157Z,97212.25
2023-04-21T22:55:36.597Z,97209.66
2023-04-21T22:59:40.439Z,97208.13
2023-04-21T23:03:45.251Z,97209.78
2023-04-21T23:07:48.963Z,97208.84
2023-04-21T23:11:52.300Z,97223.19
2023-04-21T23:15:55.595Z,97231.88
2023-04-21T23:20:02.777Z,97221.16
2023-04-21T23:24:06.835Z,97223.63
2023-04-21T23:28:12.410Z,97227.72
2023-04-21T23:32:16.289Z,97227.91
2023-04-21T23:36:21.301Z,97232.31
2023-04-21T23:40:25.010Z,97231.81
2023-04-21T23:44:28.826Z,97232.50
2023-04-21T23:48:32.295Z,97232.38
2023-04-21T23:52:37.277Z,97230.75
2023-04-21T23:56:40.676Z,97227.34
